Terminal Aerodrome Forecast
Issued by NWS

Home | Current Version | Previous Version | Text Only | Print | Product List | Glossary On
Versions: 1 2 3 4 5 6 7 8 9 10 11 12 13 14
653
FTUS44 KTSA 270520
TAFXNA
TAF
KXNA 270520Z 2706/2806 11005KT P6SM BKN100
     FM271100 12003KT 4SM BR BKN025
     FM271400 10006KT 5SM BR OVC015
     FM271700 14012KT P6SM OVC020
     FM280000 16010KT P6SM VCSH BKN012=

USA.gov is the U.S. government's official web portal to all federal, state and local government web resources and services.